Time;durP1;ratioP1;P1;durP2;ratioP2;P2;SDS_P1;SDS_P2;PMS_P1;PMS_P2;Temp;Humidity;BMP_temperature;BMP_pressure;BME280_temperature;BME280_humidity;BME280_pressure;Samples;Min_cycle;Max_cycle;Signal;HPM_P1;HPM_P2
2024/02/25 00:00:50;;;;;;;11.55;5.28;;;;;;;2.46;66.74;100879.09;5052086;28;20425;-66
2024/02/25 00:03:16;;;;;;;12.93;6.05;;;;;;;2.39;66.77;100883.69;5050859;28;20263;-66
2024/02/25 00:05:41;;;;;;;11.63;5.88;;;;;;;2.40;67.13;100872.19;5051101;28;20033;-66
2024/02/25 00:08:07;;;;;;;12.25;6.05;;;;;;;2.31;67.59;100861.91;5051802;28;20072;-66
2024/02/25 00:10:33;;;;;;;10.82;6.03;;;;;;;2.36;67.53;100860.84;5051118;28;20429;-67
2024/02/25 00:12:58;;;;;;;8.60;5.53;;;;;;;2.38;67.11;100874.88;5051171;28;20036;-65
2024/02/25 00:15:24;;;;;;;9.48;5.85;;;;;;;2.39;67.26;100863.38;5051847;28;20029;-67
2024/02/25 00:17:49;;;;;;;9.85;5.85;;;;;;;2.35;67.20;100872.31;5051775;28;20036;-66
2024/02/25 00:20:15;;;;;;;11.98;6.15;;;;;;;2.40;67.10;100873.06;5051277;28;20037;-67
2024/02/25 00:22:41;;;;;;;11.35;6.53;;;;;;;2.36;67.90;100873.22;5051934;28;20029;-62
2024/02/25 00:25:07;;;;;;;8.65;6.30;;;;;;;2.31;68.05;100878.63;5052147;28;20502;-68
2024/02/25 00:27:32;;;;;;;11.70;6.38;;;;;;;2.34;67.71;100865.31;5050753;28;20033;-68
2024/02/25 00:29:58;;;;;;;10.80;6.18;;;;;;;2.31;68.71;100870.69;5050225;28;20032;-67
2024/02/25 00:32:26;;;;;;;11.77;6.22;;;;;;;1.70;68.76;100768.56;5050794;28;20025;-67
2024/02/25 00:34:52;;;;;;;8.68;5.72;;;;;;;2.35;68.51;100868.84;5051648;28;20117;-67
2024/02/25 00:37:18;;;;;;;11.35;6.55;;;;;;;2.33;68.21;100860.94;5050733;28;20423;-67
2024/02/25 00:39:44;;;;;;;10.88;5.75;;;;;;;2.24;68.50;100845.38;5050965;28;20037;-66
2024/02/25 00:42:09;;;;;;;10.82;6.38;;;;;;;2.36;69.03;100876.69;5051991;28;20033;-66
2024/02/25 00:44:36;;;;;;;12.00;6.20;;;;;;;2.41;67.75;100863.34;5051161;27;20081;-67
2024/02/25 00:47:02;;;;;;;11.13;6.05;;;;;;;2.25;68.89;100858.50;5050286;28;20045;-67
2024/02/25 00:49:28;;;;;;;10.48;6.25;;;;;;;2.24;69.03;100871.78;5050704;28;20445;-66
2024/02/25 00:51:53;;;;;;;9.45;5.43;;;;;;;2.31;68.77;100873.34;5051495;28;20077;-66
2024/02/25 00:54:19;;;;;;;12.48;5.43;;;;;;;2.26;69.36;100870.81;5038421;28;20033;-66
2024/02/25 00:56:47;;;;;;;10.75;5.80;;;;;;;2.25;68.90;100855.03;5030828;28;20069;-66
2024/02/25 00:59:14;;;;;;;11.07;5.72;;;;;;;2.30;68.69;100868.97;5049756;28;20097;-65
2024/02/25 01:01:39;;;;;;;13.50;6.22;;;;;;;2.23;69.02;100870.06;5051270;28;20029;-69
2024/02/25 01:04:05;;;;;;;10.02;5.72;;;;;;;2.22;69.14;100868.34;5050878;28;20037;-67
2024/02/25 01:06:30;;;;;;;9.48;5.80;;;;;;;2.19;69.30;100879.00;5050701;28;20124;-68
2024/02/25 01:08:56;;;;;;;9.75;5.40;;;;;;;2.18;69.03;100867.53;5050510;28;20373;-65
2024/02/25 01:11:21;;;;;;;11.73;5.90;;;;;;;2.08;69.48;100839.66;5051004;28;20041;-66
2024/02/25 01:13:47;;;;;;;15.82;6.07;;;;;;;1.89;69.07;100820.81;5051255;28;20036;-65
2024/02/25 01:16:13;;;;;;;8.27;5.05;;;;;;;2.23;69.04;100865.63;5050529;28;20101;-66
2024/02/25 01:18:38;;;;;;;13.80;6.10;;;;;;;1.83;69.67;100809.53;5050031;28;20025;-66
2024/02/25 01:21:04;;;;;;;10.00;5.78;;;;;;;2.12;69.56;100859.81;5050983;28;20514;-66
2024/02/25 01:23:30;;;;;;;12.25;6.32;;;;;;;1.99;69.70;100839.00;5051179;28;20113;-66
2024/02/25 01:25:55;;;;;;;11.02;5.95;;;;;;;2.17;69.85;100859.66;5049959;28;20029;-66
2024/02/25 01:28:21;;;;;;;13.50;6.30;;;;;;;2.18;69.28;100867.53;5050283;28;20493;-68
2024/02/25 01:30:47;;;;;;;12.30;5.63;;;;;;;2.10;68.99;100854.53;5050912;28;20406;-66
2024/02/25 01:33:17;;;;;;;9.95;5.93;;;;;;;2.15;69.54;100855.28;5050356;28;20029;-66
2024/02/25 01:35:43;;;;;;;11.10;5.72;;;;;;;2.18;69.42;100871.97;5030609;28;20045;-66
2024/02/25 01:38:09;;;;;;;8.68;5.85;;;;;;;2.17;69.80;100863.16;5030000;28;20170;-65
2024/02/25 01:40:35;;;;;;;8.63;5.18;;;;;;;2.23;69.30;100865.63;5030265;28;20033;-65
2024/02/25 01:43:07;;;;;;;9.40;5.53;;;;;;;2.25;69.29;100898.16;5048181;28;20032;-67
2024/02/25 01:45:33;;;;;;;11.05;6.13;;;;;;;2.20;69.61;100872.78;5049900;28;20033;-67
2024/02/25 01:47:59;;;;;;;11.55;6.35;;;;;;;2.21;69.19;100872.72;5050012;28;20132;-66
2024/02/25 01:50:24;;;;;;;10.68;5.60;;;;;;;2.15;69.95;100875.56;5049575;28;20112;-68
2024/02/25 01:52:54;;;;;;;11.63;5.20;;;;;;;1.67;69.77;100780.06;5049931;28;20051;-66
2024/02/25 01:55:21;;;;;;;10.57;5.38;;;;;;;2.29;68.93;100891.00;5049731;28;20550;-67
2024/02/25 01:57:47;;;;;;;11.18;5.57;;;;;;;2.16;69.86;100866.72;5049714;28;20115;-61
2024/02/25 02:00:16;;;;;;;9.73;5.55;;;;;;;2.21;69.81;100877.16;5048492;28;20448;-68
2024/02/25 02:02:42;;;;;;;9.80;5.30;;;;;;;2.17;69.73;100883.44;5049900;28;20070;-66
2024/02/25 02:05:09;;;;;;;9.50;5.13;;;;;;;1.99;70.00;100846.94;5050074;28;20064;-67
2024/02/25 02:07:34;;;;;;;12.93;6.43;;;;;;;2.12;69.82;100873.84;5049663;28;20086;-67
2024/02/25 02:10:00;;;;;;;9.82;5.47;;;;;;;1.90;69.84;100826.06;5049726;28;20441;-66
2024/02/25 02:12:25;;;;;;;10.82;4.90;;;;;;;2.10;69.73;100875.69;5050231;28;20047;-68
2024/02/25 02:14:51;;;;;;;8.48;5.40;;;;;;;2.07;70.04;100870.50;5048104;28;20043;-65
2024/02/25 02:17:17;;;;;;;11.40;5.50;;;;;;;2.08;69.97;100874.88;5049951;28;20384;-67
2024/02/25 02:19:48;;;;;;;10.77;6.05;;;;;;;2.00;71.10;100863.66;5049991;28;20037;-66
2024/02/25 02:22:14;;;;;;;9.70;5.53;;;;;;;2.15;69.94;100880.84;5049543;28;20058;-66
2024/02/25 02:24:40;;;;;;;10.93;6.18;;;;;;;2.13;70.35;100880.03;5049199;28;20133;-67
2024/02/25 02:27:05;;;;;;;10.27;5.90;;;;;;;2.01;70.82;100878.59;5049913;28;20437;-66
2024/02/25 02:29:31;;;;;;;11.10;5.18;;;;;;;2.20;70.01;100886.00;5048591;28;20029;-66
2024/02/25 02:31:59;;;;;;;12.18;5.57;;;;;;;2.14;70.01;100887.88;5049432;28;20094;-66
2024/02/25 02:34:27;;;;;;;9.10;5.57;;;;;;;2.13;70.94;100880.03;5049503;28;20025;-67
2024/02/25 02:36:52;;;;;;;9.40;5.20;;;;;;;2.12;70.54;100870.38;5049800;28;20089;-67
2024/02/25 02:39:18;;;;;;;10.52;5.45;;;;;;;2.17;70.18;100896.63;5049238;28;20107;-67
2024/02/25 02:41:43;;;;;;;14.63;5.20;;;;;;;2.23;69.81;100878.84;5048976;28;20029;-67
2024/02/25 02:44:09;;;;;;;10.82;5.72;;;;;;;2.14;69.92;100879.97;5048810;28;20550;-66
2024/02/25 02:46:40;;;;;;;9.75;5.97;;;;;;;2.13;70.08;100878.22;5048493;28;20117;-66
2024/02/25 02:49:05;;;;;;;8.77;5.05;;;;;;;2.06;70.36;100883.75;5049677;28;20036;-67
2024/02/25 02:51:32;;;;;;;11.50;6.63;;;;;;;2.03;70.82;100883.81;5048911;28;20136;-67
2024/02/25 02:53:58;;;;;;;10.25;4.93;;;;;;;2.03;70.80;100873.25;5049049;28;20036;-68
2024/02/25 02:56:23;;;;;;;9.25;5.10;;;;;;;2.02;70.67;100864.47;5049509;28;20033;-71
2024/02/25 02:58:49;;;;;;;9.25;5.85;;;;;;;2.04;70.96;100875.88;5049871;28;20033;-67
2024/02/25 03:01:15;;;;;;;11.13;5.85;;;;;;;2.09;70.70;100887.16;5048333;28;20039;-67
2024/02/25 03:03:41;;;;;;;11.07;6.10;;;;;;;1.97;70.63;100869.03;5047810;28;20452;-68
2024/02/25 03:06:07;;;;;;;10.40;4.90;;;;;;;2.11;70.25;100893.25;5049354;28;20036;-68
2024/02/25 03:08:33;;;;;;;9.77;5.40;;;;;;;1.98;70.75;100868.97;5049624;28;20025;-66
2024/02/25 03:10:58;;;;;;;11.57;5.28;;;;;;;2.00;70.67;100896.22;5051096;28;20021;-66
2024/02/25 03:13:24;;;;;;;10.18;5.20;;;;;;;2.09;69.99;100881.88;5055503;28;20041;-67
2024/02/25 03:15:49;;;;;;;9.43;5.53;;;;;;;1.99;70.50;100864.56;5055827;27;20098;-66
2024/02/25 03:18:15;;;;;;;9.55;5.63;;;;;;;2.12;70.02;100883.56;5055755;28;20025;-67
2024/02/25 03:20:41;;;;;;;10.98;6.07;;;;;;;2.05;70.45;100895.22;5055669;28;20384;-68
2024/02/25 03:23:07;;;;;;;12.60;6.30;;;;;;;2.10;69.58;100895.97;5055153;28;20040;-66
2024/02/25 03:25:33;;;;;;;9.80;6.40;;;;;;;2.05;69.88;100898.72;5055917;28;20029;-69
2024/02/25 03:27:59;;;;;;;8.80;5.93;;;;;;;2.08;69.46;100885.44;5055515;28;20029;-66
2024/02/25 03:30:24;;;;;;;13.75;6.70;;;;;;;2.14;69.51;100897.59;5054786;28;20051;-64
2024/02/25 03:32:50;;;;;;;9.95;5.82;;;;;;;2.09;68.71;100895.09;5055501;28;20061;-66
2024/02/25 03:35:15;;;;;;;9.55;6.07;;;;;;;1.70;69.93;100847.75;5054344;28;20024;-70
2024/02/25 03:37:44;;;;;;;13.88;6.10;;;;;;;1.89;70.29;100889.47;5055445;28;20428;-68
2024/02/25 03:40:10;;;;;;;12.43;6.25;;;;;;;1.89;70.67;100897.41;5055161;28;20460;-69
2024/02/25 03:42:36;;;;;;;12.18;6.03;;;;;;;1.88;70.12;100890.41;5054870;28;20037;-68
2024/02/25 03:45:01;;;;;;;11.68;6.97;;;;;;;1.85;70.39;100892.22;5055317;28;20180;-69
2024/02/25 03:47:27;;;;;;;13.38;6.30;;;;;;;1.62;69.77;100833.88;5054502;28;20124;-69
2024/02/25 03:49:53;;;;;;;10.25;5.95;;;;;;;1.88;70.50;100885.13;5055182;28;20035;-64
2024/02/25 03:52:18;;;;;;;10.70;6.68;;;;;;;1.92;69.75;100889.41;5055668;28;20049;-69
2024/02/25 03:54:47;;;;;;;11.45;5.63;;;;;;;1.86;69.97;100856.13;5054979;28;20049;-66
2024/02/25 03:57:13;;;;;;;12.65;6.03;;;;;;;1.89;69.33;100881.56;5054870;28;20021;-67
2024/02/25 03:59:38;;;;;;;12.93;6.55;;;;;;;1.79;69.52;100888.88;5054987;28;20036;-67
2024/02/25 04:02:04;;;;;;;11.43;6.35;;;;;;;1.85;69.94;100892.22;5053770;28;20037;-66
2024/02/25 04:04:29;;;;;;;11.90;5.93;;;;;;;1.91;69.48;100885.91;5054777;28;20068;-68
2024/02/25 04:06:55;;;;;;;11.88;6.80;;;;;;;1.89;69.88;100897.41;5055468;28;20055;-64
2024/02/25 04:09:21;;;;;;;11.68;6.55;;;;;;;1.81;69.98;100887.03;5055098;28;20077;-67
2024/02/25 04:11:47;;;;;;;13.80;6.15;;;;;;;1.84;70.27;100890.47;5054900;28;20429;-65
2024/02/25 04:14:12;;;;;;;9.95;5.75;;;;;;;1.94;68.62;100879.69;5054634;28;20032;-66
2024/02/25 04:16:38;;;;;;;12.43;6.10;;;;;;;1.91;69.23;100893.84;5054946;28;20029;-66
2024/02/25 04:19:04;;;;;;;11.30;6.25;;;;;;;1.64;68.71;100846.16;5054747;28;20437;-67
2024/02/25 04:21:29;;;;;;;13.82;6.93;;;;;;;1.97;68.68;100904.22;5054259;28;20087;-67
2024/02/25 04:23:55;;;;;;;12.70;6.40;;;;;;;2.01;68.53;100908.50;5052009;28;20061;-62
2024/02/25 04:26:20;;;;;;;11.40;6.10;;;;;;;1.91;69.00;100903.50;5051903;28;20135;-68
2024/02/25 04:28:46;;;;;;;10.93;6.70;;;;;;;1.89;68.90;100906.22;5051177;28;20044;-69
2024/02/25 04:31:12;;;;;;;14.27;6.60;;;;;;;1.94;69.20;100927.22;5051120;28;20025;-69
2024/02/25 04:33:37;;;;;;;14.57;6.93;;;;;;;1.89;69.55;100905.34;5051911;28;20028;-68
2024/02/25 04:36:03;;;;;;;13.65;6.40;;;;;;;1.90;69.27;100914.97;5051457;28;20425;-67
2024/02/25 04:38:28;;;;;;;15.70;7.60;;;;;;;1.83;69.33;100912.53;5051015;28;20036;-68
2024/02/25 04:40:57;;;;;;;12.10;6.72;;;;;;;1.86;69.83;100916.88;5050776;28;20036;-67
2024/02/25 04:43:22;;;;;;;9.57;6.18;;;;;;;1.86;69.71;100907.16;5051981;28;20036;-69
2024/02/25 04:45:48;;;;;;;15.40;6.63;;;;;;;1.86;69.73;100936.19;5050657;28;20055;-69
2024/02/25 04:48:13;;;;;;;11.35;6.78;;;;;;;1.82;69.98;100929.28;5050839;28;20037;-67
2024/02/25 04:50:39;;;;;;;10.07;6.55;;;;;;;1.86;69.56;100932.72;5051248;27;20025;-73
2024/02/25 04:53:04;;;;;;;12.23;6.57;;;;;;;1.51;69.47;100882.56;5051438;28;20049;-73
2024/02/25 04:55:30;;;;;;;13.02;7.43;;;;;;;1.78;70.27;100939.94;5051234;28;20080;-63
2024/02/25 04:57:55;;;;;;;14.43;7.38;;;;;;;1.80;70.19;100928.44;5050758;28;20367;-63
2024/02/25 05:00:21;;;;;;;12.60;7.47;;;;;;;1.84;69.13;100938.00;5050454;28;20044;-57
2024/02/25 05:02:47;;;;;;;13.25;7.60;;;;;;;1.73;69.46;100918.97;5051064;28;20128;-72
2024/02/25 05:05:12;;;;;;;13.25;7.40;;;;;;;1.79;69.92;100924.06;5051191;28;20047;-75
2024/02/25 05:07:38;;;;;;;12.15;7.15;;;;;;;1.85;69.91;100934.47;5051064;28;20024;-73
2024/02/25 05:10:04;;;;;;;12.32;7.30;;;;;;;1.81;69.68;100943.38;5050767;28;20029;-72
2024/02/25 05:12:29;;;;;;;12.23;7.15;;;;;;;1.80;69.44;100930.22;5051395;28;20397;-73
2024/02/25 05:14:55;;;;;;;13.95;7.38;;;;;;;1.82;69.98;100934.56;5051579;28;20036;-74
2024/02/25 05:17:20;;;;;;;12.07;8.00;;;;;;;1.80;69.96;100940.78;5051095;28;20033;-73
2024/02/25 05:19:46;;;;;;;15.05;7.25;;;;;;;1.89;69.65;100948.47;5051503;28;20029;-71
2024/02/25 05:22:12;;;;;;;14.45;6.85;;;;;;;1.83;70.05;100952.13;5053632;28;20079;-74
2024/02/25 05:24:37;;;;;;;14.15;6.95;;;;;;;1.63;69.82;100922.72;5052417;28;20041;-74
2024/02/25 05:27:03;;;;;;;14.02;7.32;;;;;;;1.79;69.71;100945.19;5049702;28;20029;-74
2024/02/25 05:29:29;;;;;;;10.10;6.80;;;;;;;1.85;69.29;100950.31;5049732;28;20452;-70
2024/02/25 05:31:55;;;;;;;13.63;7.13;;;;;;;1.89;69.25;100951.13;5050470;28;20139;-74
2024/02/25 05:34:20;;;;;;;12.18;7.13;;;;;;;1.82;68.77;100954.81;5048923;28;20433;-75
2024/02/25 05:36:46;;;;;;;14.95;7.53;;;;;;;1.77;69.92;100951.41;5049171;28;20021;-68
2024/02/25 05:39:11;;;;;;;12.93;6.82;;;;;;;1.78;70.34;100954.03;5050200;28;20025;-64
2024/02/25 05:41:37;;;;;;;12.70;6.80;;;;;;;1.83;69.54;100957.41;5049151;28;20039;-64
2024/02/25 05:44:03;;;;;;;12.07;6.85;;;;;;;1.86;69.15;100956.47;5048905;28;20068;-65
2024/02/25 05:46:28;;;;;;;13.65;6.55;;;;;;;1.81;69.33;100959.22;5050506;28;20361;-69
2024/02/25 05:48:54;;;;;;;18.48;7.43;;;;;;;1.76;69.59;100945.28;5049909;28;20025;-68
2024/02/25 05:51:19;;;;;;;12.55;7.07;;;;;;;1.87;69.50;100958.22;5049716;28;20053;-69
2024/02/25 05:53:45;;;;;;;14.40;7.13;;;;;;;1.93;68.56;100952.75;5050361;28;20149;-70
2024/02/25 05:56:11;;;;;;;12.27;6.57;;;;;;;1.95;69.01;100955.38;5032544;28;20052;-69
2024/02/25 05:58:36;;;;;;;13.90;6.97;;;;;;;1.66;68.63;100902.41;5050153;28;20036;-69
2024/02/25 06:01:02;;;;;;;11.75;6.60;;;;;;;1.96;68.64;100952.66;5049111;28;20369;-62
2024/02/25 06:03:28;;;;;;;16.17;6.57;;;;;;;1.64;68.55;100904.22;5050604;28;20060;-72
2024/02/25 06:05:57;;;;;;;11.60;6.70;;;;;;;1.93;68.60;100951.88;5049589;28;20060;-68
2024/02/25 06:08:24;;;;;;;15.35;6.90;;;;;;;1.97;68.16;100972.03;5048696;28;20021;-65
2024/02/25 06:10:51;;;;;;;14.65;7.10;;;;;;;1.95;67.89;100955.38;5050285;28;20080;-66
2024/02/25 06:13:16;;;;;;;10.02;6.50;;;;;;;1.93;67.91;100963.31;5049124;28;20445;-65
2024/02/25 06:15:42;;;;;;;12.48;6.70;;;;;;;1.91;67.60;100938.72;5049480;28;20036;-65
2024/02/25 06:18:10;;;;;;;12.00;7.38;;;;;;;1.86;67.62;100925.63;5049112;28;20176;-65
2024/02/25 06:20:35;;;;;;;10.38;6.53;;;;;;;1.77;68.04;100910.06;5049718;28;20025;-64
2024/02/25 06:23:01;;;;;;;14.10;6.53;;;;;;;1.97;68.00;100948.28;5049547;28;20458;-66
2024/02/25 06:25:27;;;;;;;11.15;6.03;;;;;;;1.97;67.37;100933.28;5049209;28;20077;-65
2024/02/25 06:27:52;;;;;;;11.63;6.85;;;;;;;2.19;67.23;100960.91;5049961;28;20033;-65
2024/02/25 06:30:18;;;;;;;9.80;6.63;;;;;;;2.17;67.55;100970.63;5049722;28;20475;-66
2024/02/25 06:32:44;;;;;;;11.93;6.40;;;;;;;2.09;67.26;100958.50;5049350;28;20029;-65
2024/02/25 06:35:09;;;;;;;14.18;6.03;;;;;;;2.14;66.21;100972.44;5047823;28;20040;-65
2024/02/25 06:37:35;;;;;;;11.10;6.47;;;;;;;2.20;66.51;100960.84;5049416;28;20033;-66
2024/02/25 06:40:03;;;;;;;12.45;6.85;;;;;;;2.13;66.41;100972.50;5050008;28;20075;-64
2024/02/25 06:42:29;;;;;;;13.30;7.00;;;;;;;2.09;67.05;100963.78;5049270;28;20040;-65
2024/02/25 06:44:55;;;;;;;14.95;6.65;;;;;;;2.19;66.54;100974.13;5048434;28;20037;-65
2024/02/25 06:47:20;;;;;;;9.77;6.03;;;;;;;2.12;66.42;100963.69;5049247;28;20032;-65
2024/02/25 06:49:46;;;;;;;9.93;6.57;;;;;;;2.19;67.05;100974.97;5048666;28;20088;-65
2024/02/25 06:52:12;;;;;;;13.18;6.45;;;;;;;2.19;67.16;100974.13;5048267;28;20053;-66
2024/02/25 06:54:38;;;;;;;11.75;6.13;;;;;;;1.99;66.28;100933.25;5048849;27;20508;-65
2024/02/25 06:57:04;;;;;;;10.73;6.55;;;;;;;2.30;66.21;100977.31;5049816;28;20032;-65
2024/02/25 06:59:29;;;;;;;12.82;6.20;;;;;;;2.32;66.33;100972.84;5049838;28;20077;-66
2024/02/25 07:01:55;;;;;;;10.00;6.03;;;;;;;2.38;66.21;100974.47;5048396;28;20477;-65
2024/02/25 07:04:20;;;;;;;12.77;6.45;;;;;;;2.28;66.42;100974.69;5048903;28;20097;-65
2024/02/25 07:06:46;;;;;;;15.40;6.70;;;;;;;2.23;66.63;100973.13;5049133;28;20025;-65
2024/02/25 07:09:13;;;;;;;11.73;6.18;;;;;;;2.27;66.85;100967.69;5049507;28;20133;-66
2024/02/25 07:11:40;;;;;;;15.10;6.13;;;;;;;2.24;66.95;100959.84;5048540;28;20029;-66
2024/02/25 07:14:06;;;;;;;12.93;6.43;;;;;;;2.28;66.51;100972.06;5047861;28;20039;-64
2024/02/25 07:16:31;;;;;;;12.23;6.25;;;;;;;2.26;66.89;100981.81;5049032;28;20025;-65
2024/02/25 07:18:57;;;;;;;12.43;7.35;;;;;;;2.27;67.13;100966.84;5048782;28;20029;-67
2024/02/25 07:21:22;;;;;;;9.52;6.53;;;;;;;2.31;67.02;100963.19;5048284;28;20028;-65
2024/02/25 07:23:48;;;;;;;12.77;6.25;;;;;;;2.43;66.00;100978.72;5047351;28;20464;-66
2024/02/25 07:26:14;;;;;;;11.70;6.68;;;;;;;2.46;66.59;100953.09;5048009;28;20029;-66
2024/02/25 07:28:41;;;;;;;10.48;6.32;;;;;;;2.55;65.95;100966.03;5048502;28;20105;-66
2024/02/25 07:31:17;;;;;;;13.00;6.25;;;;;;;2.75;65.48;100948.75;5048797;28;20094;-65
2024/02/25 07:33:46;;;;;;;9.25;6.05;;;;;;;2.76;65.29;100958.41;5047077;28;20341;-65
2024/02/25 07:36:13;;;;;;;10.68;5.63;;;;;;;2.92;64.35;100957.03;5048491;28;20029;-65
2024/02/25 07:38:40;;;;;;;12.55;6.43;;;;;;;3.05;64.54;100946.06;5047796;28;20040;-64
2024/02/25 07:41:06;;;;;;;10.52;5.95;;;;;;;3.22;64.17;100951.69;5048591;28;20045;-70
2024/02/25 07:43:41;;;;;;;9.63;6.03;;;;;;;3.46;63.56;100946.53;5031546;28;20041;-72
2024/02/25 07:46:07;;;;;;;11.55;5.85;;;;;;;3.49;61.92;100954.34;5048444;28;20443;-74
2024/02/25 07:48:33;;;;;;;12.68;6.13;;;;;;;3.31;62.39;100932.00;5047834;28;20094;-76
2024/02/25 07:51:00;;;;;;;10.50;5.68;;;;;;;3.28;62.41;100929.47;5047178;28;20140;-74
2024/02/25 07:53:25;;;;;;;12.50;5.93;;;;;;;3.21;62.54;100941.13;5047519;28;20045;-75
2024/02/25 07:55:51;;;;;;;11.70;6.00;;;;;;;3.08;62.05;100935.38;5047290;28;20390;-74
2024/02/25 07:58:16;;;;;;;10.93;5.43;;;;;;;3.12;62.40;100945.81;5050754;28;20033;-75
2024/02/25 08:00:43;;;;;;;13.02;5.80;;;;;;;3.04;62.61;100942.56;5050630;28;20077;-73
2024/02/25 08:03:09;;;;;;;12.50;5.55;;;;;;;3.10;61.90;100954.72;5050929;28;20173;-74
2024/02/25 08:05:34;;;;;;;10.02;5.50;;;;;;;2.70;62.50;100918.00;5034496;28;20122;-74
2024/02/25 08:08:00;;;;;;;12.57;5.57;;;;;;;2.95;61.91;100954.28;5051004;28;20029;-72
2024/02/25 08:10:25;;;;;;;12.43;5.90;;;;;;;2.84;62.04;100966.97;5050526;28;20124;-74
2024/02/25 08:12:53;;;;;;;10.20;5.47;;;;;;;2.80;61.95;100945.03;5050738;28;20044;-68
2024/02/25 08:15:19;;;;;;;12.50;5.70;;;;;;;2.68;63.24;100941.00;5048853;28;20028;-72
2024/02/25 08:17:44;;;;;;;11.73;6.07;;;;;;;2.67;62.87;100946.31;5045501;28;20090;-71
2024/02/25 08:20:10;;;;;;;10.05;5.32;;;;;;;2.66;62.82;100948.09;5049591;28;20037;-73
2024/02/25 08:22:38;;;;;;;13.23;5.68;;;;;;;2.49;63.04;100929.22;5050807;27;20033;-73
2024/02/25 08:25:04;;;;;;;12.23;5.93;;;;;;;2.52;63.70;100940.56;5050339;28;20076;-76
2024/02/25 08:27:32;;;;;;;12.07;6.10;;;;;;;2.47;62.52;100925.75;5050388;28;20033;-77
2024/02/25 08:29:58;;;;;;;13.15;6.03;;;;;;;2.67;62.70;100954.25;5049419;28;20029;-77
2024/02/25 08:32:24;;;;;;;11.10;5.82;;;;;;;2.68;62.54;100971.84;5050343;28;20033;-74
2024/02/25 08:34:53;;;;;;;14.48;6.28;;;;;;;2.65;62.13;100956.06;5049555;28;20364;-66
2024/02/25 08:37:24;;;;;;;12.32;6.07;;;;;;;2.66;61.77;100955.16;5030029;28;20086;-72
2024/02/25 08:39:50;;;;;;;12.15;6.10;;;;;;;2.65;62.60;100966.66;5046579;28;20103;-62
2024/02/25 08:42:17;;;;;;;11.88;6.20;;;;;;;2.67;62.58;100976.28;5050246;28;20178;-74
2024/02/25 08:44:43;;;;;;;12.35;6.32;;;;;;;2.69;62.33;100978.88;5049788;28;20035;-75
2024/02/25 08:47:09;;;;;;;18.77;6.60;;;;;;;2.76;61.64;100966.34;5049815;28;20116;-72
2024/02/25 08:49:36;;;;;;;11.15;5.68;;;;;;;2.60;61.39;100953.56;5050867;28;20064;-74
2024/02/25 08:52:02;;;;;;;10.88;5.95;;;;;;;2.87;61.25;100977.44;5050424;28;20089;-68
2024/02/25 08:54:28;;;;;;;10.82;6.05;;;;;;;2.87;60.84;100993.31;5050422;28;20075;-76
2024/02/25 08:56:54;;;;;;;11.63;5.72;;;;;;;2.81;60.42;100972.34;5050348;27;20037;-74
2024/02/25 08:59:19;;;;;;;12.43;6.07;;;;;;;2.87;60.36;100995.97;5049978;28;20032;-71
2024/02/25 09:01:45;;;;;;;12.88;5.97;;;;;;;2.94;60.17;101007.22;5051271;28;20029;-67
2024/02/25 09:04:12;;;;;;;11.00;5.60;;;;;;;2.97;59.97;100985.97;5050500;28;20028;-74
2024/02/25 09:06:39;;;;;;;12.23;5.63;;;;;;;3.03;59.41;100982.28;5050862;28;20397;-73
2024/02/25 09:09:05;;;;;;;14.05;6.40;;;;;;;3.12;59.20;101011.09;5048993;28;20029;-74
2024/02/25 09:11:31;;;;;;;14.20;5.80;;;;;;;3.10;59.45;100991.75;5049637;28;20028;-74
2024/02/25 09:13:57;;;;;;;9.27;5.38;;;;;;;2.99;59.24;100929.47;5050772;28;20459;-74
2024/02/25 09:16:22;;;;;;;13.30;5.75;;;;;;;3.45;58.81;100982.72;5048696;28;20116;-73
2024/02/25 09:18:48;;;;;;;15.00;6.00;;;;;;;3.68;57.33;100974.94;5049095;28;20036;-73
2024/02/25 09:21:14;;;;;;;12.68;5.80;;;;;;;3.77;57.67;100998.47;5049918;28;20033;-72
2024/02/25 09:23:41;;;;;;;10.52;5.47;;;;;;;3.59;57.83;100962.88;5048621;28;20037;-72
2024/02/25 09:26:07;;;;;;;12.43;5.90;;;;;;;3.67;56.69;100962.63;5050164;28;20069;-73
2024/02/25 09:28:33;;;;;;;12.27;5.35;;;;;;;3.99;56.63;100990.66;5048625;28;20048;-74
2024/02/25 09:30:59;;;;;;;9.63;5.32;;;;;;;3.98;56.04;100962.44;5032267;28;20033;-75
2024/02/25 09:33:29;;;;;;;13.38;6.07;;;;;;;4.21;55.61;100987.25;5049414;28;20085;-75
2024/02/25 09:35:55;;;;;;;10.88;5.82;;;;;;;4.38;55.74;100986.66;5040726;28;20041;-75
2024/02/25 09:38:22;;;;;;;18.35;6.30;;;;;;;4.42;54.93;100980.31;5049715;27;20032;-73
2024/02/25 09:40:59;;;;;;;8.82;4.93;;;;;;;4.62;55.13;100999.06;5036715;28;20030;-74
2024/02/25 09:43:26;;;;;;;11.45;5.72;;;;;;;4.50;54.22;101005.69;5045821;28;20034;-74
2024/02/25 09:45:53;;;;;;;14.77;6.03;;;;;;;4.38;54.60;100999.91;5048721;28;20025;-73
2024/02/25 09:48:20;;;;;;;11.88;5.85;;;;;;;4.38;54.70;101001.69;5048232;28;20124;-73
2024/02/25 09:50:49;;;;;;;15.55;6.10;;;;;;;4.24;54.91;101010.13;5049170;28;20045;-73
2024/02/25 09:53:15;;;;;;;12.98;5.88;;;;;;;4.19;55.72;101002.34;5031996;28;20079;-72
2024/02/25 09:55:43;;;;;;;12.43;5.22;;;;;;;4.20;54.25;101003.22;5049729;28;20139;-71
2024/02/25 09:58:09;;;;;;;14.57;6.22;;;;;;;4.03;54.88;100991.41;5048504;27;20059;-73
2024/02/25 10:00:35;;;;;;;9.90;6.25;;;;;;;4.06;54.46;100986.00;5050113;28;20072;-74
2024/02/25 10:03:00;;;;;;;16.02;5.97;;;;;;;4.11;54.88;100981.44;5049609;28;20181;-73
2024/02/25 10:05:26;;;;;;;11.32;6.10;;;;;;;3.84;54.96;100933.75;5049519;28;20086;-74
2024/02/25 10:08:11;;;;;;;15.63;6.40;;;;;;;4.44;54.17;100978.47;5049678;28;20028;-72
2024/02/25 10:10:40;;;;;;;13.40;6.30;;;;;;;4.49;54.07;100991.59;5048881;28;20095;-73
2024/02/25 10:13:06;;;;;;;13.75;6.60;;;;;;;4.53;53.89;101002.91;5049044;28;20035;-74
2024/02/25 10:15:32;;;;;;;16.20;5.97;;;;;;;4.54;53.18;101002.88;5048447;28;20431;-73
2024/02/25 10:17:58;;;;;;;11.52;6.10;;;;;;;4.44;51.89;100998.81;5049606;28;20057;-72
2024/02/25 10:20:24;;;;;;;9.25;5.30;;;;;;;4.27;52.02;101004.72;5030826;28;20061;-74
2024/02/25 10:23:07;;;;;;;11.40;5.82;;;;;;;4.16;53.58;100986.53;5040252;28;20037;-72
2024/02/25 10:25:32;;;;;;;9.20;5.70;;;;;;;3.96;53.95;100984.59;5048051;28;20344;-72
2024/02/25 10:28:18;;;;;;;16.50;6.70;;;;;;;4.07;54.31;100979.78;5049343;28;21088;-74
2024/02/25 10:31:04;;;;;;;13.45;6.05;;;;;;;4.19;54.55;100982.94;5047974;28;20465;-72
2024/02/25 10:33:29;;;;;;;12.55;5.82;;;;;;;4.19;53.54;100998.84;5047951;28;20028;-73
2024/02/25 10:36:12;;;;;;;10.82;6.15;;;;;;;4.25;53.44;100988.88;5048305;28;20437;-73
2024/02/25 10:38:40;;;;;;;10.00;5.57;;;;;;;4.10;54.14;101000.91;5049980;28;20123;-72
2024/02/25 10:41:07;;;;;;;11.05;5.75;;;;;;;4.01;53.74;100985.31;5049395;28;20025;-73
2024/02/25 10:43:35;;;;;;;9.63;5.47;;;;;;;3.99;54.04;100995.97;5047722;28;20047;-73
2024/02/25 10:46:12;;;;;;;11.55;5.85;;;;;;;3.99;54.70;101005.69;5049100;28;20109;-73
2024/02/25 10:48:39;;;;;;;11.52;5.82;;;;;;;3.83;54.91;100995.59;5049508;28;20048;-74
2024/02/25 10:51:05;;;;;;;11.75;5.50;;;;;;;3.73;54.57;100984.44;5047956;28;20044;-73
2024/02/25 10:53:32;;;;;;;13.35;5.60;;;;;;;3.62;55.22;100988.38;5048856;28;20055;-73
2024/02/25 10:55:58;;;;;;;13.18;5.88;;;;;;;3.42;56.48;100989.91;5048757;28;20045;-73
2024/02/25 10:58:26;;;;;;;10.55;6.63;;;;;;;3.32;57.16;100983.16;5049115;28;20036;-73
2024/02/25 11:00:54;;;;;;;12.75;6.60;;;;;;;3.40;57.09;100974.06;5049313;28;20028;-72
2024/02/25 11:03:21;;;;;;;11.10;6.03;;;;;;;3.34;56.71;100997.19;5047650;28;20353;-71
2024/02/25 11:05:47;;;;;;;13.68;6.72;;;;;;;3.18;57.50;100971.25;5031345;28;20174;-73
2024/02/25 11:08:26;;;;;;;12.93;6.38;;;;;;;3.27;58.08;100976.22;5048904;28;20044;-72
2024/02/25 11:10:58;;;;;;;12.35;6.05;;;;;;;3.21;57.57;100955.25;5047627;28;20081;-73
2024/02/25 11:13:26;;;;;;;15.05;6.22;;;;;;;3.23;57.34;100989.59;5030395;28;20033;-71
2024/02/25 11:15:54;;;;;;;13.68;6.00;;;;;;;3.16;57.86;100984.50;5048772;28;20089;-74
2024/02/25 11:18:29;;;;;;;15.48;6.40;;;;;;;3.19;58.44;100977.38;5048395;28;20028;-73
2024/02/25 11:21:08;;;;;;;10.88;6.53;;;;;;;3.22;58.05;100983.44;5048598;28;20356;-73
2024/02/25 11:23:42;;;;;;;15.35;6.47;;;;;;;3.06;58.58;100982.19;5048363;28;20510;-73